createdAt,value
2023-03-22T00:01:24.037Z,69927.09
2023-03-22T00:03:51.530Z,69927.09
2023-03-22T00:06:18.372Z,69927.09
2023-03-22T00:08:45.435Z,69927.09
2023-03-22T00:11:12.854Z,69927.09
2023-03-22T00:13:39.415Z,69927.09
2023-03-22T00:16:06.476Z,69927.09
2023-03-22T00:18:32.977Z,69927.09
2023-03-22T00:20:59.664Z,69927.09
2023-03-22T00:23:27.689Z,69927.09
2023-03-22T00:25:54.285Z,69927.09
2023-03-22T00:28:21.175Z,69927.09
2023-03-22T00:30:53.105Z,69927.09
2023-03-22T00:33:19.575Z,69927.09
2023-03-22T00:35:52.902Z,69927.09
2023-03-22T00:38:20.632Z,69927.09
2023-03-22T00:40:48.369Z,69927.09
2023-03-22T00:43:15.714Z,69927.09
2023-03-22T00:45:42.858Z,69927.09
2023-03-22T00:48:12.583Z,69927.09
2023-03-22T00:50:40.196Z,69927.09
2023-03-22T00:53:07.120Z,69927.09
2023-03-22T00:55:33.724Z,69927.09
2023-03-22T00:58:00.381Z,69927.09
2023-03-22T01:00:28.223Z,69927.09
2023-03-22T01:02:59.637Z,69927.09
2023-03-22T01:05:28.280Z,69927.09
2023-03-22T01:07:55.202Z,69927.09
2023-03-22T01:10:21.672Z,69927.09
2023-03-22T01:12:48.185Z,69927.09
2023-03-22T01:15:14.757Z,69927.09
2023-03-22T01:17:41.563Z,69927.09
2023-03-22T01:20:09.452Z,69927.09
2023-03-22T01:22:35.977Z,69927.09
2023-03-22T01:25:03.216Z,69927.09
2023-03-22T01:27:29.786Z,69927.09
2023-03-22T01:29:56.322Z,69927.09
2023-03-22T01:32:22.873Z,69927.09
2023-03-22T01:34:49.532Z,69927.09
2023-03-22T01:37:16.027Z,69927.09
2023-03-22T01:39:42.544Z,69927.09
2023-03-22T01:42:14.007Z,69927.09
2023-03-22T01:44:43.542Z,69927.09
2023-03-22T01:47:11.509Z,69927.09
2023-03-22T01:49:38.469Z,69927.09
2023-03-22T01:52:12.706Z,69927.09
2023-03-22T01:54:45.634Z,69927.09
2023-03-22T01:57:12.223Z,69927.09
2023-03-22T01:59:40.787Z,69927.09
2023-03-22T02:02:08.003Z,69927.09
2023-03-22T02:04:38.358Z,69927.09
2023-03-22T02:07:10.112Z,69927.09
2023-03-22T02:09:42.261Z,69927.09
2023-03-22T02:12:20.480Z,69927.09
2023-03-22T02:15:16.241Z,69927.09
2023-03-22T02:17:52.825Z,69927.09
2023-03-22T02:20:31.671Z,69927.09
2023-03-22T02:23:27.801Z,69927.09
2023-03-22T02:26:13.132Z,69927.09
2023-03-22T02:28:55.005Z,69927.09
2023-03-22T02:31:29.997Z,69927.09
2023-03-22T02:34:47.146Z,69927.09
2023-03-22T02:37:13.557Z,69927.09
2023-03-22T02:39:58.120Z,69927.09
2023-03-22T02:42:45.959Z,69927.09
2023-03-22T02:45:17.392Z,69927.09
2023-03-22T02:48:07.139Z,69927.09
2023-03-22T02:50:52.684Z,69927.09
2023-03-22T02:53:33.628Z,69927.09
2023-03-22T02:56:18.409Z,69927.09
2023-03-22T02:58:48.003Z,69927.09
2023-03-22T03:01:23.732Z,69927.09
2023-03-22T03:03:51.125Z,69927.09
2023-03-22T03:06:19.670Z,69927.09
2023-03-22T03:08:50.757Z,69927.09
2023-03-22T03:11:17.761Z,69927.09
2023-03-22T03:13:47.682Z,69927.09
2023-03-22T03:16:17.519Z,69927.09
2023-03-22T03:18:53.066Z,69927.09
2023-03-22T03:21:45.341Z,69927.09
2023-03-22T03:24:27.037Z,69927.09
2023-03-22T03:26:58.978Z,69927.09
2023-03-22T03:29:43.718Z,69927.09
2023-03-22T03:32:17.017Z,69927.09
2023-03-22T03:34:52.627Z,69927.09
2023-03-22T03:37:23.950Z,69927.09
2023-03-22T03:40:09.796Z,69927.09
2023-03-22T03:42:38.880Z,69927.09
2023-03-22T03:45:06.605Z,69927.09
2023-03-22T03:47:34.361Z,69927.09
2023-03-22T03:50:00.876Z,69927.09
2023-03-22T03:52:27.531Z,69927.09
2023-03-22T03:54:55.076Z,69927.09
2023-03-22T03:57:22.110Z,69927.09
2023-03-22T03:59:48.860Z,69927.09
2023-03-22T04:02:16.702Z,69927.09
2023-03-22T04:04:43.379Z,69927.09
2023-03-22T04:07:10.371Z,69927.09
2023-03-22T04:09:38.693Z,69927.09
2023-03-22T04:12:05.334Z,69927.09
2023-03-22T04:14:31.908Z,69927.09
2023-03-22T04:16:58.438Z,69927.09
2023-03-22T04:19:25.116Z,69927.09
2023-03-22T04:21:53.140Z,69927.09
2023-03-22T04:24:21.590Z,69927.09
2023-03-22T04:26:48.227Z,69927.09
2023-03-22T04:29:15.954Z,69927.09
2023-03-22T04:31:42.447Z,69927.09
2023-03-22T04:34:08.974Z,69927.09
2023-03-22T04:36:39.577Z,69927.09
2023-03-22T04:39:09.472Z,69927.09
2023-03-22T04:41:37.078Z,69927.09
2023-03-22T04:44:04.825Z,69927.09
2023-03-22T04:46:33.802Z,69927.09
2023-03-22T04:49:00.434Z,69927.09
2023-03-22T04:51:28.022Z,69927.09
2023-03-22T04:53:54.853Z,69927.09
2023-03-22T04:56:21.889Z,69927.09
2023-03-22T04:58:48.365Z,69927.09
2023-03-22T05:01:16.885Z,69927.09
2023-03-22T05:03:45.519Z,69927.09
2023-03-22T05:06:12.413Z,69927.09
2023-03-22T05:08:39.264Z,69927.09
2023-03-22T05:11:10.877Z,69927.09
2023-03-22T05:13:37.724Z,69927.09
2023-03-22T05:16:05.597Z,69927.09
2023-03-22T05:18:32.933Z,69927.09
2023-03-22T05:21:00.677Z,69927.09
2023-03-22T05:23:27.257Z,69927.09
2023-03-22T05:25:54.231Z,69927.09
2023-03-22T05:28:22.237Z,69927.09
2023-03-22T05:30:50.050Z,69927.09
2023-03-22T05:33:21.544Z,69927.09
2023-03-22T05:35:48.822Z,69927.09
2023-03-22T05:38:15.739Z,69927.09
2023-03-22T05:40:43.386Z,69927.09
2023-03-22T05:43:09.981Z,69927.09
2023-03-22T05:45:37.064Z,69927.09
2023-03-22T05:48:04.535Z,69927.09
2023-03-22T05:50:31.162Z,69927.09
2023-03-22T05:52:57.885Z,69927.09
2023-03-22T05:55:25.876Z,69927.09
2023-03-22T05:57:54.037Z,69927.09
2023-03-22T06:00:21.827Z,69927.09
2023-03-22T06:02:49.488Z,69927.09
2023-03-22T06:05:17.444Z,69927.09
2023-03-22T06:07:44.812Z,69927.09
2023-03-22T06:10:13.377Z,69927.09
2023-03-22T06:12:40.140Z,69927.09
2023-03-22T06:15:08.110Z,69927.09
2023-03-22T06:17:34.945Z,69927.09
2023-03-22T06:20:01.452Z,69927.09
2023-03-22T06:22:30.477Z,69927.09
2023-03-22T06:24:56.981Z,69927.09
2023-03-22T06:27:23.458Z,69927.09
2023-03-22T06:29:51.055Z,69927.09
2023-03-22T06:32:17.965Z,69927.09
2023-03-22T06:34:44.574Z,69927.09
2023-03-22T06:37:11.192Z,69927.09
2023-03-22T06:39:37.632Z,69927.09
2023-03-22T06:42:04.119Z,69927.09
2023-03-22T06:44:30.811Z,69927.09
2023-03-22T06:46:57.287Z,69927.09
2023-03-22T06:49:24.117Z,69927.09
2023-03-22T06:51:50.634Z,69927.09
2023-03-22T06:54:17.131Z,69927.09
2023-03-22T06:56:43.614Z,69927.09
2023-03-22T06:59:10.460Z,69927.09
2023-03-22T07:01:36.989Z,69927.09
2023-03-22T07:04:03.949Z,69927.09
2023-03-22T07:06:32.625Z,69927.09
2023-03-22T07:08:59.318Z,69927.09
2023-03-22T07:12:07.391Z,100272.81
2023-03-22T07:14:34.150Z,100270.66
2023-03-22T07:17:00.721Z,100268.88
2023-03-22T07:19:28.349Z,100276.31
2023-03-22T07:21:54.845Z,100277.75
2023-03-22T07:24:21.323Z,100268.59
2023-03-22T07:26:47.860Z,100277.34
2023-03-22T07:29:14.308Z,100268.69
2023-03-22T07:31:40.886Z,100282.34
2023-03-22T07:34:07.476Z,100282.47
2023-03-22T07:36:33.950Z,100280.91
2023-03-22T07:39:00.520Z,100270.94
2023-03-22T07:41:28.844Z,100266.66
2023-03-22T07:44:04.779Z,100268.47
2023-03-22T07:46:37.941Z,100266.06
2023-03-22T07:49:04.580Z,100266.13
2023-03-22T07:51:31.115Z,100260.41
2023-03-22T07:53:57.632Z,100262.31
2023-03-22T07:56:24.147Z,100267.13
2023-03-22T07:58:50.696Z,100260.50
2023-03-22T08:01:17.240Z,100273.41
2023-03-22T08:03:43.774Z,100262.34
2023-03-22T08:06:11.507Z,100259.25
2023-03-22T08:08:38.655Z,100256.19
2023-03-22T08:11:06.134Z,100264.91
2023-03-22T08:13:32.941Z,100258.06
2023-03-22T08:15:59.544Z,100258.31
2023-03-22T08:18:26.082Z,100260.34
2023-03-22T08:20:54.576Z,100257.31
2023-03-22T08:23:28.813Z,100261.81
2023-03-22T08:26:01.594Z,100249.66
2023-03-22T08:28:28.099Z,100253.50
2023-03-22T08:30:54.614Z,100248.16
2023-03-22T08:33:23.555Z,100251.63
2023-03-22T08:35:50.717Z,100248.31
2023-03-22T08:38:18.084Z,100253.94
2023-03-22T08:40:47.898Z,100252.41
2023-03-22T08:43:14.406Z,100248.66
2023-03-22T08:45:41.144Z,100252.47
2023-03-22T08:48:07.865Z,100248.84
2023-03-22T08:50:35.030Z,100250.88
2023-03-22T08:53:01.590Z,100252.66
2023-03-22T08:55:28.212Z,100247.28
2023-03-22T08:57:59.946Z,100251.53
2023-03-22T09:00:28.692Z,100250.63
2023-03-22T09:03:00.510Z,100244.69
2023-03-22T09:05:27.085Z,100239.31
2023-03-22T09:07:53.872Z,100248.22
2023-03-22T09:10:20.456Z,100248.66
2023-03-22T09:12:46.898Z,100240.94
2023-03-22T09:15:13.356Z,100233.59
2023-03-22T09:17:39.916Z,100240.97
2023-03-22T09:20:12.787Z,100228.28
2023-03-22T09:22:40.342Z,100226.53
2023-03-22T09:25:07.593Z,100217.88
2023-03-22T09:27:34.082Z,100225.50
2023-03-22T09:30:00.771Z,100216.97
2023-03-22T09:32:27.307Z,100220.13
2023-03-22T09:34:53.817Z,100219.59
2023-03-22T09:37:20.348Z,100214.94
2023-03-22T09:39:46.909Z,100224.03
2023-03-22T09:42:48.600Z,100232.59
2023-03-22T09:45:24.863Z,100221.00
2023-03-22T09:47:53.800Z,100217.94
2023-03-22T09:50:26.026Z,100212.03
2023-03-22T09:52:53.277Z,100214.47
2023-03-22T09:55:42.101Z,100231.69
2023-03-22T09:58:33.146Z,100215.84
2023-03-22T10:01:04.159Z,100215.84
2023-03-22T10:04:05.955Z,100219.97
2023-03-22T10:06:32.751Z,100205.31
2023-03-22T10:09:10.284Z,100208.91
2023-03-22T10:11:46.701Z,100210.06
2023-03-22T10:14:41.596Z,100210.59
2023-03-22T10:17:27.203Z,100198.63
2023-03-22T10:19:56.719Z,100203.03
2023-03-22T10:22:30.016Z,100192.88
2023-03-22T10:24:57.196Z,100205.03
2023-03-22T10:27:26.278Z,100195.69
2023-03-22T10:29:57.119Z,100194.34
2023-03-22T10:32:57.139Z,100200.94
2023-03-22T10:35:24.554Z,100194.50
2023-03-22T10:37:52.062Z,100191.19
2023-03-22T10:40:37.544Z,100188.69
2023-03-22T10:43:24.095Z,100195.69
2023-03-22T10:45:53.765Z,100191.66
2023-03-22T10:48:27.791Z,100188.03
2023-03-22T10:50:55.029Z,100186.38
2023-03-22T10:53:36.069Z,100184.03
2023-03-22T10:56:02.890Z,100179.50
2023-03-22T10:58:33.850Z,100180.03
2023-03-22T11:01:05.987Z,100179.16
2023-03-22T11:03:35.313Z,100172.88
2023-03-22T11:06:07.739Z,100178.38
2023-03-22T11:08:46.671Z,100177.25
2023-03-22T11:11:17.683Z,100165.75
2023-03-22T11:13:50.342Z,100164.63
2023-03-22T11:16:17.764Z,100168.22
2023-03-22T11:18:44.353Z,100156.06
2023-03-22T11:21:11.925Z,100168.94
2023-03-22T11:23:41.703Z,100169.22
2023-03-22T11:26:08.204Z,100172.25
2023-03-22T11:28:49.525Z,100174.44
2023-03-22T11:31:20.502Z,100173.63
2023-03-22T11:34:01.045Z,100178.38
2023-03-22T11:36:28.384Z,100175.22
2023-03-22T11:39:00.280Z,100166.16
2023-03-22T11:41:31.293Z,100162.72
2023-03-22T11:44:11.337Z,100168.16
2023-03-22T11:46:38.520Z,100165.69
2023-03-22T11:49:08.585Z,100172.16
2023-03-22T11:51:38.612Z,100162.34
2023-03-22T11:54:09.322Z,100150.72
2023-03-22T11:56:41.182Z,100148.19
2023-03-22T11:59:14.069Z,100149.69
2023-03-22T12:01:44.514Z,100148.47
2023-03-22T12:04:18.768Z,100148.50
2023-03-22T12:06:45.373Z,100143.16
2023-03-22T12:09:30.320Z,100138.38
2023-03-22T12:11:57.646Z,100118.78
2023-03-22T12:14:53.678Z,100117.41
2023-03-22T12:17:24.195Z,100118.97
2023-03-22T12:20:00.472Z,100124.72
2023-03-22T12:22:40.324Z,100119.53
2023-03-22T12:25:12.927Z,100117.56
2023-03-22T12:27:42.555Z,100115.47
2023-03-22T12:30:21.537Z,100114.81
2023-03-22T12:33:16.726Z,100104.00
2023-03-22T12:35:45.575Z,100112.91
2023-03-22T12:38:36.653Z,100117.84
2023-03-22T12:41:06.407Z,100123.50
2023-03-22T12:43:44.798Z,100112.84
2023-03-22T12:46:19.549Z,100102.22
2023-03-22T12:48:50.905Z,100114.91
2023-03-22T12:51:17.396Z,100111.09
2023-03-22T12:53:55.317Z,100107.59
2023-03-22T12:56:33.650Z,100111.03
2023-03-22T12:59:03.891Z,100104.56
2023-03-22T13:01:46.208Z,100097.88
2023-03-22T13:04:47.596Z,100097.19
2023-03-22T13:07:16.635Z,100101.41
2023-03-22T13:09:50.670Z,100089.63
2023-03-22T13:12:17.110Z,100090.22
2023-03-22T13:14:52.765Z,100103.72
2023-03-22T13:17:25.532Z,100088.28
2023-03-22T13:20:00.094Z,100078.19
2023-03-22T13:22:27.868Z,100076.41
2023-03-22T13:24:59.378Z,100091.22
2023-03-22T13:27:35.599Z,100070.91
2023-03-22T13:30:04.715Z,100077.50
2023-03-22T13:32:33.615Z,100077.09
2023-03-22T13:35:00.880Z,100067.84
2023-03-22T13:37:47.453Z,100068.53
2023-03-22T13:40:46.441Z,100056.41
2023-03-22T13:43:37.107Z,100069.56
2023-03-22T13:46:20.035Z,100060.31
2023-03-22T13:48:46.948Z,100049.72
2023-03-22T13:51:22.730Z,100056.50
2023-03-22T13:53:57.090Z,100051.72
2023-03-22T13:56:33.755Z,100056.28
2023-03-22T13:59:03.810Z,100053.00
2023-03-22T14:01:37.217Z,100050.69
2023-03-22T14:04:11.335Z,100055.53
2023-03-22T14:07:07.015Z,100064.00
2023-03-22T14:09:44.644Z,100058.41
2023-03-22T14:12:29.725Z,100057.22
2023-03-22T14:14:58.521Z,100045.53
2023-03-22T14:17:43.831Z,100049.69
2023-03-22T14:20:16.689Z,100048.22
